North Platte Regional Airport Lee Bird Field
KLBF : now visible

Airfield :











YOU CAN JOIN US ON...

 
LOGIN :

Register | Disclaimer

   EN    FR    IT 

 









Legend :    VFR   Marginal VFR   IFR   Intensive IFR   Very Intensive IFR
Visi :
Ceiling :
>= 8 km
>= 3000ft
5 to 8 km
1000 to 3000 ft
1500m to 5 km
500 to 1000 ft
800 to 1500m
200 to 500 ft
< 800m
< 200 ft
Symbols :   Thunderstorms  Fog  Heavy snow  Heavy precipitations  Wind > 20 kt






- Airport Elevation : 2777 ft
- IATA code : LBF


KLBF - North Platte Regional Lee Bird Field

CURRENT METAR :
  • 282153Z AUTO 03014KT 10SM OVC037 06/M01 A3000 RMK AO2 PK WND 36026/2120 SLP172 T00611006

EXPIRED METARs :
  • 282053Z AUTO 36016G22KT 10SM OVC034 06/M01 A2999 RMK AO2 SLP170 T00611011 56019
  • 282002Z AUTO 35011KT 10SM OVC035 06/M01 A3000 RMK AO2 T00611011
  • 281953Z AUTO 01014G20KT 10SM BKN028 OVC037 06/00 A3000 RMK AO2 SLP174 T00610000

TAF KLBF
Valid from the 28 at 19:00 until the 29 at 18:00 UTC


281912Z 2819/2918 32008KT P6SM SKC
TEMPO 2819/2820 35010KT P6SM BKN025 OVC030
FM290100 VRB03KT P6SM SKC
FM291400 VRB03KT P6SM SCT050



MET'MAP, your aeronautical weather chart ! - Copyright ORBIFLY December 2007 - Disclaimer

ORBIFLY MET'MAP TEAM :

Programming & Development : Alexandra Zaïnal
Concept & original design : Baudouin d'Aumeries
Assistance for programming : Marc-Olivier Méhu
Technical & hardware support : Manuel Goepfert

Contact : metmap@orbifly.com




SOURCES & CREDITS :

   NOAA       Earth
Advisory